Time;durP1;ratioP1;P1;durP2;ratioP2;P2;SDS_P1;SDS_P2;PMS_P1;PMS_P2;Temp;Humidity;BMP_temperature;BMP_pressure;BME280_temperature;BME280_humidity;BME280_pressure;Samples;Min_cycle;Max_cycle;Signal;HPM_P1;HPM_P2
2023/11/13 00:00:47;;;;;;;;;;;7.70;88.00;;;;;;5072267;28;20027;-64
2023/11/13 00:03:20;;;;;;;;;;;7.70;88.10;;;;;;5078926;28;19928;-64
2023/11/13 00:05:53;;;;;;;;;;;7.80;88.00;;;;;;5074332;28;19935;-63
2023/11/13 00:08:26;;;;;;;;;;;7.70;88.00;;;;;;5066278;28;19928;-63
2023/11/13 00:11:04;;;;;;;;;;;7.80;88.10;;;;;;5073117;28;19978;-63
2023/11/13 00:13:37;;;;;;;;;;;7.70;88.10;;;;;;5072763;28;19990;-63
2023/11/13 00:16:11;;;;;;;;;;;7.80;88.10;;;;;;5074068;28;19925;-64
2023/11/13 00:18:45;;;;;;;;;;;7.80;88.10;;;;;;5074022;28;20025;-64
2023/11/13 00:21:18;;;;;;;;;;;7.70;88.00;;;;;;5074158;28;19925;-64
2023/11/13 00:23:51;;;;;;;;;;;7.70;88.10;;;;;;5070881;28;19950;-64
2023/11/13 00:26:24;;;;;;;;;;;7.80;88.10;;;;;;5076017;28;19935;-64
2023/11/13 00:28:57;;;;;;;;;;;7.70;88.00;;;;;;5077256;28;19939;-64
2023/11/13 00:31:33;;;;;;;;;;;7.70;88.10;;;;;;5065966;28;19955;-62
2023/11/13 00:34:07;;;;;;;;;;;7.70;88.00;;;;;;5074676;28;20379;-64
2023/11/13 00:36:40;;;;;;;;;;;7.70;88.00;;;;;;5068691;28;19942;-64
2023/11/13 00:39:13;;;;;;;;;;;7.70;88.00;;;;;;5065807;28;19932;-63
2023/11/13 00:41:46;;;;;;;;;;;7.70;88.00;;;;;;5055882;28;19955;-64
2023/11/13 00:44:19;;;;;;;;;;;7.70;88.00;;;;;;5074382;28;19978;-64
2023/11/13 00:46:47;;;;;;;;;;;7.70;88.10;;;;;;5076364;28;20298;-64
2023/11/13 00:49:20;;;;;;;;;;;7.70;88.00;;;;;;5050235;28;19935;-64
2023/11/13 00:51:54;;;;;;;;;;;7.60;88.00;;;;;;5069781;28;20019;-65
2023/11/13 00:54:34;;;;;;;;;;;7.60;88.10;;;;;;5072256;28;19936;-64
2023/11/13 00:57:08;;;;;;;;;;;7.60;88.00;;;;;;5074823;28;19938;-64
2023/11/13 00:59:41;;;;;;;;;;;7.60;88.00;;;;;;5053250;28;20018;-64
2023/11/13 01:02:16;;;;;;;;;;;7.60;88.00;;;;;;5050175;28;19924;-66
2023/11/13 01:04:50;;;;;;;;;;;7.50;88.00;;;;;;5072592;28;19924;-67
2023/11/13 01:07:23;;;;;;;;;;;7.50;87.90;;;;;;5072437;28;20409;-66
2023/11/13 01:09:57;;;;;;;;;;;7.50;87.90;;;;;;5049276;28;19932;-66
2023/11/13 01:12:30;;;;;;;;;;;7.50;88.00;;;;;;5048339;28;20402;-66
2023/11/13 01:15:04;;;;;;;;;;;7.50;88.10;;;;;;5072680;28;19928;-66
2023/11/13 01:17:39;;;;;;;;;;;7.40;88.20;;;;;;5074052;28;20653;-65
2023/11/13 01:20:14;;;;;;;;;;;7.50;88.10;;;;;;5071764;28;19940;-65
2023/11/13 01:22:47;;;;;;;;;;;7.50;88.20;;;;;;5071745;28;19932;-66
2023/11/13 01:25:20;;;;;;;;;;;7.40;88.10;;;;;;5074181;28;20379;-65
2023/11/13 01:27:53;;;;;;;;;;;7.40;88.20;;;;;;5071291;28;19924;-65
2023/11/13 01:30:27;;;;;;;;;;;7.40;88.30;;;;;;5055397;28;19928;-67
2023/11/13 01:33:02;;;;;;;;;;;7.40;88.30;;;;;;5072130;28;19932;-66
2023/11/13 01:35:36;;;;;;;;;;;7.40;88.40;;;;;;5077268;28;19928;-65
2023/11/13 01:38:09;;;;;;;;;;;7.40;88.30;;;;;;5044857;28;19960;-67
2023/11/13 01:40:42;;;;;;;;;;;7.40;88.40;;;;;;5054538;28;19928;-68
2023/11/13 01:43:19;;;;;;;;;;;7.40;88.40;;;;;;5048173;28;19928;-65
2023/11/13 01:45:53;;;;;;;;;;;7.40;88.30;;;;;;5054708;28;19979;-67
2023/11/13 01:48:29;;;;;;;;;;;7.40;88.40;;;;;;5048475;28;20987;-65
2023/11/13 01:51:03;;;;;;;;;;;7.40;88.40;;;;;;5054074;28;19925;-64
2023/11/13 01:53:36;;;;;;;;;;;7.40;88.30;;;;;;5073669;28;20420;-66
2023/11/13 01:56:09;;;;;;;;;;;7.40;88.30;;;;;;5074735;28;20290;-65
2023/11/13 01:58:42;;;;;;;;;;;7.40;88.40;;;;;;5054245;28;19935;-66
2023/11/13 02:01:16;;;;;;;;;;;7.40;88.40;;;;;;5073284;28;19931;-66
2023/11/13 02:03:52;;;;;;;;;;;7.40;88.40;;;;;;5071861;28;19928;-66
2023/11/13 02:06:28;;;;;;;;;;;7.40;88.30;;;;;;5077974;28;19925;-65
2023/11/13 02:09:02;;;;;;;;;;;7.40;88.30;;;;;;5077063;28;20370;-66
2023/11/13 02:11:37;;;;;;;;;;;7.40;88.20;;;;;;5077832;28;20367;-67
2023/11/13 02:14:11;;;;;;;;;;;7.30;88.20;;;;;;5042583;28;19924;-67
2023/11/13 02:16:44;;;;;;;;;;;7.30;88.30;;;;;;5075528;28;19924;-66
2023/11/13 02:19:18;;;;;;;;;;;7.30;88.30;;;;;;5077378;28;19928;-67
2023/11/13 02:21:52;;;;;;;;;;;7.30;88.30;;;;;;5057656;28;19986;-67
2023/11/13 02:24:27;;;;;;;;;;;7.30;88.30;;;;;;5078410;28;19928;-68
2023/11/13 02:27:00;;;;;;;;;;;7.20;88.40;;;;;;5076185;28;19932;-67
2023/11/13 02:29:33;;;;;;;;;;;7.30;88.50;;;;;;5077798;28;19978;-66
2023/11/13 02:32:07;;;;;;;;;;;7.30;88.50;;;;;;5059370;28;19932;-65
2023/11/13 02:34:40;;;;;;;;;;;7.30;88.50;;;;;;5076404;28;19932;-66
2023/11/13 02:37:13;;;;;;;;;;;7.30;88.50;;;;;;5076610;28;19932;-67
2023/11/13 02:39:47;;;;;;;;;;;7.30;88.50;;;;;;5078591;28;19956;-66
2023/11/13 02:42:21;;;;;;;;;;;7.30;88.50;;;;;;5069646;28;19924;-67
2023/11/13 02:44:54;;;;;;;;;;;7.30;88.60;;;;;;5058390;28;19974;-67
2023/11/13 02:47:27;;;;;;;;;;;7.30;88.50;;;;;;5076283;28;19924;-66
2023/11/13 02:50:02;;;;;;;;;;;7.30;88.40;;;;;;5072431;28;20447;-66
2023/11/13 02:52:35;;;;;;;;;;;7.40;88.30;;;;;;5079615;28;19924;-66
2023/11/13 02:55:05;;;;;;;;;;;7.30;88.10;;;;;;5071477;28;19924;-66
2023/11/13 02:57:39;;;;;;;;;;;7.40;88.00;;;;;;5061530;28;20379;-66
2023/11/13 03:00:12;;;;;;;;;;;7.30;88.00;;;;;;5058314;28;19955;-65
2023/11/13 03:02:47;;;;;;;;;;;7.30;87.80;;;;;;5073815;28;20014;-66
2023/11/13 03:05:20;;;;;;;;;;;7.30;87.70;;;;;;5076381;28;20314;-65
2023/11/13 03:07:53;;;;;;;;;;;7.40;87.60;;;;;;5075461;28;19972;-66
2023/11/13 03:10:28;;;;;;;;;;;7.30;87.50;;;;;;5070408;28;19942;-65
2023/11/13 03:13:02;;;;;;;;;;;7.30;87.50;;;;;;5068548;28;19928;-67
2023/11/13 03:15:35;;;;;;;;;;;7.40;87.40;;;;;;5068586;28;19931;-66
2023/11/13 03:18:11;;;;;;;;;;;7.40;87.30;;;;;;5059337;28;20011;-66
2023/11/13 03:20:45;;;;;;;;;;;7.40;87.20;;;;;;5048663;28;19928;-66
2023/11/13 03:23:18;;;;;;;;;;;7.30;87.20;;;;;;5068986;28;19931;-65
2023/11/13 03:25:53;;;;;;;;;;;7.30;87.10;;;;;;5052096;28;19924;-67
2023/11/13 03:28:26;;;;;;;;;;;7.30;87.00;;;;;;5074788;28;20337;-67
2023/11/13 03:30:59;;;;;;;;;;;7.30;87.00;;;;;;5073605;28;19928;-68
2023/11/13 03:33:33;;;;;;;;;;;7.30;87.00;;;;;;5075370;28;19932;-67
2023/11/13 03:36:06;;;;;;;;;;;7.40;87.00;;;;;;5075718;28;19924;-68
2023/11/13 03:38:39;;;;;;;;;;;7.40;87.00;;;;;;5076520;28;19936;-66
2023/11/13 03:41:14;;;;;;;;;;;7.30;87.00;;;;;;5039205;28;19980;-66
2023/11/13 03:43:47;;;;;;;;;;;7.30;87.00;;;;;;5054185;28;19929;-64
2023/11/13 03:46:20;;;;;;;;;;;7.40;86.90;;;;;;5056701;28;19925;-66
2023/11/13 03:48:54;;;;;;;;;;;7.40;86.90;;;;;;5058020;28;19924;-64
2023/11/13 03:51:27;;;;;;;;;;;7.40;86.90;;;;;;5074388;28;19931;-65
2023/11/13 03:54:00;;;;;;;;;;;7.40;86.90;;;;;;5051860;28;20329;-66
2023/11/13 03:56:28;;;;;;;;;;;7.40;87.00;;;;;;5054637;28;19939;-67
2023/11/13 03:59:01;;;;;;;;;;;7.40;87.00;;;;;;5059021;28;19928;-66
2023/11/13 04:01:34;;;;;;;;;;;7.40;86.90;;;;;;5056321;28;19928;-65
2023/11/13 04:04:09;;;;;;;;;;;7.40;87.00;;;;;;5054944;28;19936;-65
2023/11/13 04:06:44;;;;;;;;;;;7.40;87.10;;;;;;5058234;28;20384;-67
2023/11/13 04:09:19;;;;;;;;;;;7.40;87.20;;;;;;5052515;28;19928;-67
2023/11/13 04:11:55;;;;;;;;;;;7.40;87.30;;;;;;5040353;28;19945;-66
2023/11/13 04:14:28;;;;;;;;;;;7.40;87.50;;;;;;5074231;28;19932;-67
2023/11/13 04:17:04;;;;;;;;;;;7.40;87.50;;;;;;5076134;28;19924;-67
2023/11/13 04:19:37;;;;;;;;;;;7.40;87.40;;;;;;5076273;28;20003;-67
2023/11/13 04:22:10;;;;;;;;;;;7.40;87.50;;;;;;5078896;28;19928;-66
2023/11/13 04:24:44;;;;;;;;;;;7.40;87.60;;;;;;5069228;28;19931;-67
2023/11/13 04:27:19;;;;;;;;;;;7.40;87.50;;;;;;5073484;28;19948;-66
2023/11/13 04:29:52;;;;;;;;;;;7.40;87.60;;;;;;5073927;28;19928;-67
2023/11/13 04:32:25;;;;;;;;;;;7.40;87.70;;;;;;5075981;28;19928;-63
2023/11/13 04:34:58;;;;;;;;;;;7.30;87.70;;;;;;5077116;28;19932;-64
2023/11/13 04:37:31;;;;;;;;;;;7.40;87.70;;;;;;5073072;28;19928;-62
2023/11/13 04:40:05;;;;;;;;;;;7.40;87.80;;;;;;5074947;28;19994;-64
2023/11/13 04:42:40;;;;;;;;;;;7.40;87.90;;;;;;5072130;28;19934;-64
2023/11/13 04:45:13;;;;;;;;;;;7.40;87.80;;;;;;5073305;28;20039;-63
2023/11/13 04:47:47;;;;;;;;;;;7.40;87.80;;;;;;5074085;28;19993;-64
2023/11/13 04:50:20;;;;;;;;;;;7.40;88.00;;;;;;5072642;28;19940;-64
2023/11/13 04:52:53;;;;;;;;;;;7.40;88.20;;;;;;5074988;28;19932;-63
2023/11/13 04:55:26;;;;;;;;;;;7.40;88.10;;;;;;5070384;28;20275;-63
2023/11/13 04:58:02;;;;;;;;;;;7.40;88.10;;;;;;5075878;28;19928;-63
2023/11/13 05:00:35;;;;;;;;;;;7.40;88.20;;;;;;5071525;28;19927;-64
2023/11/13 05:03:15;;;;;;;;;;;7.30;88.50;;;;;;5076854;28;19935;-62
2023/11/13 05:05:49;;;;;;;;;;;7.30;88.50;;;;;;5069247;28;20014;-63
2023/11/13 05:08:23;;;;;;;;;;;7.40;88.60;;;;;;5070732;28;19928;-63
2023/11/13 05:10:56;;;;;;;;;;;7.30;88.50;;;;;;5074606;28;19928;-63
2023/11/13 05:13:31;;;;;;;;;;;7.30;88.50;;;;;;5076011;28;20371;-64
2023/11/13 05:15:57;;;;;;;;;;;7.30;88.60;;;;;;5066754;28;19936;-63
2023/11/13 05:18:30;;;;;;;;;;;7.30;88.60;;;;;;5072355;28;19947;-63
2023/11/13 05:21:03;;;;;;;;;;;7.30;88.60;;;;;;5072869;28;19932;-63
2023/11/13 05:23:37;;;;;;;;;;;7.30;88.60;;;;;;5078186;28;19977;-62
2023/11/13 05:26:10;;;;;;;;;;;7.30;88.60;;;;;;5073954;28;19924;-64
2023/11/13 05:28:45;;;;;;;;;;;7.30;88.80;;;;;;5076953;28;19925;-63
2023/11/13 05:31:20;;;;;;;;;;;7.30;88.80;;;;;;5074626;28;19925;-63
2023/11/13 05:33:53;;;;;;;;;;;7.30;88.80;;;;;;5075371;28;20379;-64
2023/11/13 05:36:27;;;;;;;;;;;7.30;88.90;;;;;;5075629;28;19924;-64
2023/11/13 05:39:00;;;;;;;;;;;7.20;89.00;;;;;;5074333;28;19932;-63
2023/11/13 05:41:33;;;;;;;;;;;7.30;89.00;;;;;;5076949;28;19930;-62
2023/11/13 05:44:08;;;;;;;;;;;7.30;89.00;;;;;;5074030;28;20015;-64
2023/11/13 05:46:41;;;;;;;;;;;7.30;89.10;;;;;;5076260;28;20390;-64
2023/11/13 05:49:14;;;;;;;;;;;7.20;89.30;;;;;;5076705;28;19951;-64
2023/11/13 05:51:47;;;;;;;;;;;7.20;89.30;;;;;;5079694;28;19989;-64
2023/11/13 05:54:21;;;;;;;;;;;7.20;89.40;;;;;;5075386;28;19935;-62
2023/11/13 05:56:54;;;;;;;;;;;7.20;89.30;;;;;;5081388;28;19924;-64
2023/11/13 05:59:29;;;;;;;;;;;7.20;89.40;;;;;;5080330;28;19932;-64
2023/11/13 06:01:56;;;;;;;;;;;7.20;89.60;;;;;;5077833;28;19932;-65
2023/11/13 06:04:29;;;;;;;;;;;7.20;89.60;;;;;;5079708;28;20013;-63
2023/11/13 06:07:03;;;;;;;;;;;7.20;89.60;;;;;;5077826;28;19928;-64
2023/11/13 06:09:38;;;;;;;;;;;7.20;89.60;;;;;;5077758;28;19933;-64
2023/11/13 06:12:12;;;;;;;;;;;7.20;89.50;;;;;;5071722;28;20026;-64
2023/11/13 06:14:47;;;;;;;;;;;7.20;89.50;;;;;;5077864;28;19931;-64
2023/11/13 06:17:23;;;;;;;;;;;7.20;89.50;;;;;;5077178;27;19932;-63
2023/11/13 06:19:56;;;;;;;;;;;7.30;89.50;;;;;;5079697;28;19928;-62
2023/11/13 06:22:30;;;;;;;;;;;7.30;89.50;;;;;;5075755;28;19928;-64
2023/11/13 06:25:07;;;;;;;;;;;7.30;89.60;;;;;;5077292;28;19924;-64
2023/11/13 06:27:43;;;;;;;;;;;7.30;89.60;;;;;;5077393;28;20370;-64
2023/11/13 06:30:18;;;;;;;;;;;7.30;89.60;;;;;;5067169;28;20444;-63
2023/11/13 06:32:47;;;;;;;;;;;7.30;89.50;;;;;;5074472;28;19934;-64
2023/11/13 06:35:20;;;;;;;;;;;7.30;89.50;;;;;;5079694;28;19944;-64
2023/11/13 06:37:53;;;;;;;;;;;7.30;89.40;;;;;;5078753;28;19934;-64
2023/11/13 06:40:27;;;;;;;;;;;7.30;89.30;;;;;;5076711;28;19934;-64
2023/11/13 06:43:00;;;;;;;;;;;7.30;89.40;;;;;;5079898;28;19932;-63
2023/11/13 06:45:35;;;;;;;;;;;7.30;89.40;;;;;;5077067;28;19928;-62
2023/11/13 06:48:08;;;;;;;;;;;7.30;89.40;;;;;;5075396;28;20044;-63
2023/11/13 06:50:43;;;;;;;;;;;7.30;89.30;;;;;;5075759;28;19935;-64
2023/11/13 06:53:16;;;;;;;;;;;7.30;89.40;;;;;;5079742;28;19924;-61
2023/11/13 06:55:49;;;;;;;;;;;7.30;89.30;;;;;;5077475;28;19931;-61
2023/11/13 06:58:16;;;;;;;;;;;7.30;89.30;;;;;;5068854;28;19924;-61
2023/11/13 07:00:51;;;;;;;;;;;7.30;89.10;;;;;;5070722;28;19924;-62
2023/11/13 07:03:24;;;;;;;;;;;7.40;89.30;;;;;;5077469;28;19936;-60
2023/11/13 07:05:58;;;;;;;;;;;7.40;89.50;;;;;;5075241;28;19933;-60
2023/11/13 07:08:31;;;;;;;;;;;7.40;89.30;;;;;;5076735;28;19932;-62
2023/11/13 07:11:05;;;;;;;;;;;7.40;89.40;;;;;;5072985;28;19939;-61
2023/11/13 07:13:39;;;;;;;;;;;7.40;89.40;;;;;;5073424;28;19944;-61
2023/11/13 07:16:14;;;;;;;;;;;7.40;89.30;;;;;;5071509;28;20023;-60
2023/11/13 07:18:47;;;;;;;;;;;7.40;89.30;;;;;;5071272;28;19931;-61
2023/11/13 07:21:21;;;;;;;;;;;7.40;89.40;;;;;;5075125;28;19936;-61
2023/11/13 07:23:54;;;;;;;;;;;7.40;89.40;;;;;;5074178;28;19928;-61
2023/11/13 07:26:27;;;;;;;;;;;7.40;89.50;;;;;;5075672;28;20027;-61
2023/11/13 07:29:04;;;;;;;;;;;7.40;89.30;;;;;;5075377;28;19955;-60
2023/11/13 07:31:39;;;;;;;;;;;7.40;89.40;;;;;;5073917;28;19931;-61
2023/11/13 07:34:12;;;;;;;;;;;7.30;89.60;;;;;;5078054;28;19932;-60
2023/11/13 07:36:45;;;;;;;;;;;7.40;89.40;;;;;;5075646;28;19947;-62
2023/11/13 07:39:27;;;;;;;;;;;7.40;89.40;;;;;;5080940;28;20030;-60
2023/11/13 07:42:07;;;;;;;;;;;7.40;89.70;;;;;;5077102;28;20371;-60
2023/11/13 07:44:48;;;;;;;;;;;7.40;89.50;;;;;;5079756;28;19932;-63
2023/11/13 07:47:26;;;;;;;;;;;7.40;89.70;;;;;;5076852;28;19932;-60
2023/11/13 07:50:00;;;;;;;;;;;7.40;89.70;;;;;;5078290;28;19924;-61
2023/11/13 07:52:33;;;;;;;;;;;7.40;89.70;;;;;;5080867;28;20022;-62
2023/11/13 07:55:07;;;;;;;;;;;7.50;89.70;;;;;;5075903;28;19951;-60
2023/11/13 07:57:41;;;;;;;;;;;7.50;89.30;;;;;;5077012;28;19928;-63
2023/11/13 08:00:15;;;;;;;;;;;7.50;89.60;;;;;;5075498;28;19924;-61
2023/11/13 08:02:56;;;;;;;;;;;7.50;89.60;;;;;;5075898;28;19933;-74
2023/11/13 08:05:30;;;;;;;;;;;7.50;89.80;;;;;;5070777;28;19924;-74
2023/11/13 08:08:03;;;;;;;;;;;7.50;89.80;;;;;;5075449;28;19928;-75
2023/11/13 08:10:40;;;;;;;;;;;7.50;89.50;;;;;;5071241;28;19932;-76
2023/11/13 08:13:14;;;;;;;;;;;7.60;89.80;;;;;;5078275;28;19925;-76
2023/11/13 08:15:50;;;;;;;;;;;7.60;89.80;;;;;;5080202;28;20325;-74
2023/11/13 08:18:25;;;;;;;;;;;7.60;89.70;;;;;;5077968;28;19958;-74
2023/11/13 08:20:58;;;;;;;;;;;7.60;89.80;;;;;;5080537;28;20007;-77
2023/11/13 08:23:31;;;;;;;;;;;7.70;89.70;;;;;;5078706;28;19932;-74
2023/11/13 08:26:35;;;;;;;;;;;7.70;89.80;;;;;;5027415;27;19944;-75
2023/11/13 08:29:09;;;;;;;;;;;7.70;90.00;;;;;;5026849;28;19929;-75
2023/11/13 08:31:42;;;;;;;;;;;7.60;90.00;;;;;;5034976;28;19968;-74
2023/11/13 08:34:09;;;;;;;;;;;7.60;90.10;;;;;;5047047;28;19929;-75
2023/11/13 08:36:44;;;;;;;;;;;7.70;90.10;;;;;;5047063;28;19936;-75
2023/11/13 08:39:18;;;;;;;;;;;7.70;89.90;;;;;;5046501;28;19940;-72
2023/11/13 08:41:56;;;;;;;;;;;7.70;90.00;;;;;;5047507;28;20283;-74
2023/11/13 08:44:30;;;;;;;;;;;7.70;90.20;;;;;;5044425;28;20386;-75
2023/11/13 08:47:05;;;;;;;;;;;7.70;89.90;;;;;;5047011;28;20028;-74
2023/11/13 08:49:41;;;;;;;;;;;7.70;90.10;;;;;;5045204;28;19979;-74
2023/11/13 08:52:14;;;;;;;;;;;7.70;90.40;;;;;;5045306;28;19929;-75
2023/11/13 08:54:49;;;;;;;;;;;7.80;90.40;;;;;;5046827;28;19925;-76
2023/11/13 08:57:24;;;;;;;;;;;7.90;90.30;;;;;;5045467;28;19961;-74
2023/11/13 08:59:57;;;;;;;;;;;7.90;90.20;;;;;;5042875;28;19983;-74
2023/11/13 09:02:30;;;;;;;;;;;7.90;90.10;;;;;;5044167;28;19932;-74
2023/11/13 09:05:04;;;;;;;;;;;8.00;90.00;;;;;;5045097;28;19935;-74
2023/11/13 09:07:37;;;;;;;;;;;8.00;90.10;;;;;;5046068;28;19933;-74
2023/11/13 09:10:11;;;;;;;;;;;7.90;90.10;;;;;;5045777;28;19925;-74
2023/11/13 09:12:45;;;;;;;;;;;7.90;90.20;;;;;;5027852;28;19975;-62
2023/11/13 09:15:18;;;;;;;;;;;8.00;90.10;;;;;;5028227;28;19933;-62
2023/11/13 09:17:54;;;;;;;;;;;7.90;90.30;;;;;;5025884;28;20010;-62
2023/11/13 09:20:29;;;;;;;;;;;8.00;90.30;;;;;;5026099;28;19972;-62
2023/11/13 09:23:04;;;;;;;;;;;8.00;90.30;;;;;;5023733;28;19933;-61
2023/11/13 09:25:37;;;;;;;;;;;8.00;90.20;;;;;;5039917;28;19932;-61
2023/11/13 09:28:12;;;;;;;;;;;8.00;90.40;;;;;;5045383;28;19956;-62
2023/11/13 09:30:45;;;;;;;;;;;8.00;90.40;;;;;;5029000;28;20020;-62
2023/11/13 09:33:18;;;;;;;;;;;8.00;90.40;;;;;;5044926;28;20379;-62
2023/11/13 09:35:51;;;;;;;;;;;8.10;90.30;;;;;;5040651;28;19933;-61
2023/11/13 09:38:24;;;;;;;;;;;8.10;90.30;;;;;;5029474;28;19968;-61
2023/11/13 09:41:02;;;;;;;;;;;8.10;90.30;;;;;;5031049;28;19928;-61
2023/11/13 09:43:39;;;;;;;;;;;8.10;90.30;;;;;;5032537;28;20006;-62
2023/11/13 09:46:15;;;;;;;;;;;8.20;90.50;;;;;;5032893;28;19932;-62
2023/11/13 09:48:50;;;;;;;;;;;8.10;90.30;;;;;;5031021;28;20035;-62
2023/11/13 09:51:28;;;;;;;;;;;8.10;90.60;;;;;;5030907;28;19932;-63
2023/11/13 09:54:03;;;;;;;;;;;8.10;90.70;;;;;;5031689;28;20000;-61
2023/11/13 09:56:38;;;;;;;;;;;8.20;90.90;;;;;;5022436;28;19937;-62
2023/11/13 09:59:14;;;;;;;;;;;8.20;90.70;;;;;;5027655;28;19929;-62
2023/11/13 10:01:48;;;;;;;;;;;8.20;90.80;;;;;;5019973;28;19945;-62
2023/11/13 10:04:21;;;;;;;;;;;8.20;90.80;;;;;;5011908;28;19979;-62
2023/11/13 10:06:57;;;;;;;;;;;8.20;90.80;;;;;;5010999;28;19925;-63
2023/11/13 10:09:30;;;;;;;;;;;8.20;91.00;;;;;;5009965;28;19979;-61
2023/11/13 10:12:03;;;;;;;;;;;8.20;91.20;;;;;;5017546;28;19925;-62
2023/11/13 10:14:38;;;;;;;;;;;8.20;91.10;;;;;;5010758;28;19980;-62
2023/11/13 10:17:12;;;;;;;;;;;8.10;91.00;;;;;;5011482;28;20425;-62
2023/11/13 10:19:59;;;;;;;;;;;8.10;91.10;;;;;;5011432;28;20463;-62
2023/11/13 10:22:32;;;;;;;;;;;8.20;91.10;;;;;;5010087;28;19984;-63
2023/11/13 10:25:06;;;;;;;;;;;8.20;91.20;;;;;;5010796;28;19936;-64
2023/11/13 10:27:46;;;;;;;;;;;8.20;91.00;;;;;;5011533;28;19972;-62
2023/11/13 10:30:21;;;;;;;;;;;8.20;91.20;;;;;;5010713;28;19948;-63
2023/11/13 10:32:48;;;;;;;;;;;8.20;91.10;;;;;;5010729;28;19929;-63
2023/11/13 10:35:28;;;;;;;;;;;8.30;91.40;;;;;;5010789;28;19933;-63
2023/11/13 10:38:03;;;;;;;;;;;8.30;91.60;;;;;;5019402;28;20744;-63
2023/11/13 10:40:43;;;;;;;;;;;8.30;91.50;;;;;;5010176;28;20380;-63
2023/11/13 10:43:27;;;;;;;;;;;8.40;91.40;;;;;;5010980;28;19934;-65
2023/11/13 10:46:09;;;;;;;;;;;8.40;91.50;;;;;;5009870;28;20013;-64
2023/11/13 10:48:43;;;;;;;;;;;8.30;91.30;;;;;;5008725;28;19929;-63
2023/11/13 10:51:18;;;;;;;;;;;8.30;91.70;;;;;;5010541;28;19965;-63
2023/11/13 10:53:54;;;;;;;;;;;8.30;91.80;;;;;;5010859;28;19933;-63
2023/11/13 10:56:28;;;;;;;;;;;8.40;91.60;;;;;;5010512;28;19933;-63
2023/11/13 10:59:02;;;;;;;;;;;8.40;91.60;;;;;;5009944;28;19926;-63
2023/11/13 11:01:37;;;;;;;;;;;8.50;91.50;;;;;;5010414;28;19929;-62
2023/11/13 11:04:11;;;;;;;;;;;8.50;91.30;;;;;;5009957;28;19948;-63
2023/11/13 11:06:46;;;;;;;;;;;8.60;91.30;;;;;;5006500;28;19933;-64
2023/11/13 11:09:20;;;;;;;;;;;8.60;91.30;;;;;;5010470;28;19932;-63
2023/11/13 11:11:53;;;;;;;;;;;8.60;91.40;;;;;;5007111;28;19980;-64
2023/11/13 11:14:34;;;;;;;;;;;8.70;91.40;;;;;;5024090;28;19939;-64
2023/11/13 11:17:15;;;;;;;;;;;8.70;91.30;;;;;;5023552;28;19925;-63
2023/11/13 11:19:50;;;;;;;;;;;8.70;91.40;;;;;;5016122;28;20007;-63
2023/11/13 11:22:28;;;;;;;;;;;8.60;91.50;;;;;;5025030;28;20307;-64
2023/11/13 11:25:12;;;;;;;;;;;8.60;91.40;;;;;;5025198;28;20260;-63
2023/11/13 11:27:55;;;;;;;;;;;8.70;91.60;;;;;;5018329;28;19929;-63
2023/11/13 11:30:32;;;;;;;;;;;8.70;91.60;;;;;;5030522;28;20006;-63
2023/11/13 11:33:09;;;;;;;;;;;8.70;91.70;;;;;;5030153;28;19928;-62
2023/11/13 11:35:43;;;;;;;;;;;8.70;91.60;;;;;;5022334;28;19972;-62
2023/11/13 11:38:18;;;;;;;;;;;8.70;91.50;;;;;;5029560;28;20461;-61
2023/11/13 11:40:51;;;;;;;;;;;8.80;91.50;;;;;;5027597;28;19987;-62
2023/11/13 11:43:29;;;;;;;;;;;8.80;91.50;;;;;;5017882;28;19940;-62
2023/11/13 11:46:03;;;;;;;;;;;8.80;91.60;;;;;;5015099;28;20049;-63
2023/11/13 11:48:38;;;;;;;;;;;8.90;91.50;;;;;;5009435;28;19930;-62
2023/11/13 11:51:18;;;;;;;;;;;8.90;91.50;;;;;;5006782;28;19929;-62
2023/11/13 11:53:57;;;;;;;;;;;8.90;91.80;;;;;;5019663;28;19933;-61
2023/11/13 11:56:30;;;;;;;;;;;8.90;91.50;;;;;;5010429;28;20015;-63
2023/11/13 11:59:09;;;;;;;;;;;8.90;91.70;;;;;;5027318;28;20008;-62
2023/11/13 12:01:43;;;;;;;;;;;8.90;91.70;;;;;;5020806;28;19936;-62
2023/11/13 12:04:18;;;;;;;;;;;8.90;91.70;;;;;;5026276;28;20413;-62
2023/11/13 12:06:52;;;;;;;;;;;8.90;91.50;;;;;;5026545;28;19940;-61
2023/11/13 12:09:25;;;;;;;;;;;8.90;91.60;;;;;;5027681;28;20027;-62
2023/11/13 12:11:59;;;;;;;;;;;9.00;91.70;;;;;;5028712;28;19925;-62
2023/11/13 12:14:32;;;;;;;;;;;9.00;91.70;;;;;;5017331;28;19947;-61
2023/11/13 12:17:07;;;;;;;;;;;9.00;91.90;;;;;;5026983;28;20384;-61
2023/11/13 12:19:42;;;;;;;;;;;9.00;92.00;;;;;;5024557;28;19940;-62
2023/11/13 12:22:16;;;;;;;;;;;9.10;91.90;;;;;;5023911;28;19960;-61
2023/11/13 12:24:50;;;;;;;;;;;9.10;91.80;;;;;;5016620;28;19986;-62
2023/11/13 12:27:24;;;;;;;;;;;9.10;91.80;;;;;;5008918;28;20288;-62
2023/11/13 12:29:59;;;;;;;;;;;9.10;91.80;;;;;;5010023;28;19968;-61
2023/11/13 12:32:33;;;;;;;;;;;9.20;91.90;;;;;;5009239;28;19929;-62
2023/11/13 12:35:08;;;;;;;;;;;9.20;91.80;;;;;;5013964;28;19929;-62
2023/11/13 12:37:42;;;;;;;;;;;9.20;91.90;;;;;;5008706;28;19925;-62
2023/11/13 12:40:17;;;;;;;;;;;9.30;92.00;;;;;;5005174;28;20426;-61
2023/11/13 12:42:52;;;;;;;;;;;9.30;92.20;;;;;;5008981;28;19926;-63
2023/11/13 12:45:25;;;;;;;;;;;9.30;92.00;;;;;;5008140;28;19932;-64
2023/11/13 12:48:01;;;;;;;;;;;9.30;92.40;;;;;;5014601;28;19948;-64
2023/11/13 12:50:38;;;;;;;;;;;9.30;92.40;;;;;;5022628;28;19925;-64
2023/11/13 12:53:13;;;;;;;;;;;9.40;92.40;;;;;;5010316;28;19992;-63
2023/11/13 12:55:49;;;;;;;;;;;9.40;92.30;;;;;;5027153;28;19933;-64
2023/11/13 12:58:25;;;;;;;;;;;9.40;92.30;;;;;;5020264;28;19948;-62
2023/11/13 13:00:59;;;;;;;;;;;9.40;92.20;;;;;;5026188;28;19998;-63
2023/11/13 13:03:32;;;;;;;;;;;9.50;92.20;;;;;;5027762;28;19939;-63
2023/11/13 13:06:08;;;;;;;;;;;9.50;92.30;;;;;;5018253;28;19940;-62
2023/11/13 13:08:41;;;;;;;;;;;9.60;92.30;;;;;;5025384;28;19925;-63
2023/11/13 13:11:14;;;;;;;;;;;9.60;92.90;;;;;;5008944;28;19979;-62
2023/11/13 13:13:48;;;;;;;;;;;9.60;92.70;;;;;;5010323;28;20020;-62
2023/11/13 13:16:25;;;;;;;;;;;9.60;92.50;;;;;;5011037;28;19936;-64
2023/11/13 13:18:58;;;;;;;;;;;9.60;92.80;;;;;;5029743;28;19932;-62
2023/11/13 13:21:33;;;;;;;;;;;9.60;92.80;;;;;;5025832;28;19925;-63
2023/11/13 13:24:10;;;;;;;;;;;9.60;92.80;;;;;;5019137;28;19937;-62
2023/11/13 13:26:43;;;;;;;;;;;9.60;92.70;;;;;;5027355;28;19956;-63
2023/11/13 13:29:16;;;;;;;;;;;9.60;92.80;;;;;;5030564;28;19939;-62
2023/11/13 13:31:51;;;;;;;;;;;9.60;92.70;;;;;;5020428;28;19953;-63
2023/11/13 13:34:27;;;;;;;;;;;9.70;92.80;;;;;;5029735;28;19949;-63
2023/11/13 13:37:02;;;;;;;;;;;9.70;92.90;;;;;;5029965;28;20376;-62
2023/11/13 13:39:37;;;;;;;;;;;9.80;93.40;;;;;;5030260;28;19976;-62
2023/11/13 13:42:12;;;;;;;;;;;9.80;93.20;;;;;;5015126;28;19936;-63
2023/11/13 13:44:45;;;;;;;;;;;9.80;93.60;;;;;;5019881;28;20010;-65
2023/11/13 13:47:19;;;;;;;;;;;9.90;93.70;;;;;;5030000;28;19967;-63
2023/11/13 13:49:52;;;;;;;;;;;9.90;93.50;;;;;;5030561;28;19947;-63
2023/11/13 13:52:30;;;;;;;;;;;9.90;93.70;;;;;;5029672;28;20299;-61
2023/11/13 13:55:09;;;;;;;;;;;10.00;93.70;;;;;;5031420;28;19925;-61
2023/11/13 13:57:45;;;;;;;;;;;10.10;94.00;;;;;;5042931;28;19925;-62
2023/11/13 14:00:23;;;;;;;;;;;10.10;94.10;;;;;;5027824;28;19933;-62
2023/11/13 14:03:00;;;;;;;;;;;10.30;94.40;;;;;;5030511;28;19995;-62
2023/11/13 14:05:34;;;;;;;;;;;10.40;94.40;;;;;;5029723;28;19932;-64
2023/11/13 14:08:14;;;;;;;;;;;10.50;94.50;;;;;;5033222;28;19936;-60
2023/11/13 14:10:49;;;;;;;;;;;10.60;94.50;;;;;;5038588;28;19987;-62
2023/11/13 14:13:24;;;;;;;;;;;10.60;94.50;;;;;;5038124;28;19936;-61
2023/11/13 14:15:57;;;;;;;;;;;10.60;94.50;;;;;;5016264;28;19969;-61
2023/11/13 14:18:33;;;;;;;;;;;10.70;94.60;;;;;;5007506;28;19926;-62
2023/11/13 14:21:08;;;;;;;;;;;10.70;94.60;;;;;;5023836;28;20449;-61
2023/11/13 14:23:43;;;;;;;;;;;10.80;94.70;;;;;;5028134;28;19929;-63
2023/11/13 14:26:16;;;;;;;;;;;10.90;94.70;;;;;;5023814;28;20360;-61
2023/11/13 14:28:50;;;;;;;;;;;10.90;94.60;;;;;;5029050;28;20037;-62
2023/11/13 14:31:24;;;;;;;;;;;11.00;94.80;;;;;;5029893;28;20295;-62
2023/11/13 14:33:56;;;;;;;;;;;11.00;94.80;;;;;;5020309;28;20014;-62
2023/11/13 14:36:29;;;;;;;;;;;11.10;94.80;;;;;;5027690;28;20012;-62
2023/11/13 14:39:05;;;;;;;;;;;11.10;94.90;;;;;;5018079;28;19965;-62
2023/11/13 14:41:38;;;;;;;;;;;11.10;94.90;;;;;;5018434;28;19929;-61
2023/11/13 14:44:11;;;;;;;;;;;11.10;94.90;;;;;;5029429;28;19925;-61
2023/11/13 14:46:45;;;;;;;;;;;11.20;95.00;;;;;;5028473;28;20020;-61
2023/11/13 14:49:18;;;;;;;;;;;11.20;95.00;;;;;;5023812;28;20019;-62
2023/11/13 14:51:51;;;;;;;;;;;11.20;95.10;;;;;;5020336;28;20028;-61
2023/11/13 14:54:26;;;;;;;;;;;11.40;95.20;;;;;;5028184;28;19929;-62
2023/11/13 14:57:00;;;;;;;;;;;11.50;95.20;;;;;;5028637;28;19972;-60
2023/11/13 14:59:38;;;;;;;;;;;11.50;95.20;;;;;;5028466;28;19975;-61
2023/11/13 15:02:12;;;;;;;;;;;11.50;95.20;;;;;;5006511;28;19933;-61
2023/11/13 15:04:45;;;;;;;;;;;11.50;95.20;;;;;;5008562;28;19933;-61
2023/11/13 15:07:20;;;;;;;;;;;11.60;95.30;;;;;;5003049;28;20340;-61
2023/11/13 15:09:55;;;;;;;;;;;11.60;95.30;;;;;;5008270;28;19932;-62